Time;durP1;ratioP1;P1;durP2;ratioP2;P2;SDS_P1;SDS_P2;PMS_P1;PMS_P2;Temp;Humidity;BMP_temperature;BMP_pressure;BME280_temperature;BME280_humidity;BME280_pressure;Samples;Min_cycle;Max_cycle;Signal;HPM_P1;HPM_P2
2021/06/28 00:01:50;;;;;;;;;;;20.50;99.90;;;;;;5086605;28;19967;-73
2021/06/28 00:04:17;;;;;;;;;;;20.40;99.90;;;;;;5088654;28;19923;-73
2021/06/28 00:06:44;;;;;;;;;;;20.50;99.90;;;;;;5086034;28;19990;-73
2021/06/28 00:09:10;;;;;;;;;;;20.50;99.90;;;;;;5084768;28;19928;-74
2021/06/28 00:11:37;;;;;;;;;;;20.50;99.90;;;;;;5085420;28;19977;-74
2021/06/28 00:14:04;;;;;;;;;;;20.50;99.90;;;;;;5086685;28;20411;-73
2021/06/28 00:16:30;;;;;;;;;;;20.50;99.90;;;;;;5083080;28;19924;-73
2021/06/28 00:19:00;;;;;;;;;;;20.50;99.90;;;;;;5086937;28;20075;-73
2021/06/28 00:21:26;;;;;;;;;;;20.50;99.90;;;;;;5083938;28;20424;-73
2021/06/28 00:23:53;;;;;;;;;;;20.50;99.90;;;;;;5087319;28;19928;-73
2021/06/28 00:26:20;;;;;;;;;;;20.50;99.90;;;;;;5086478;28;19933;-73
2021/06/28 00:28:47;;;;;;;;;;;20.50;99.90;;;;;;5084793;28;19977;-72
2021/06/28 00:31:13;;;;;;;;;;;20.50;99.90;;;;;;5087674;28;19970;-73
2021/06/28 00:33:40;;;;;;;;;;;20.50;99.90;;;;;;5085657;28;19931;-73
2021/06/28 00:36:07;;;;;;;;;;;20.40;99.90;;;;;;5085909;28;19968;-73
2021/06/28 00:38:33;;;;;;;;;;;20.40;99.90;;;;;;5079490;28;19997;-73
2021/06/28 00:41:00;;;;;;;;;;;20.40;99.90;;;;;;5090179;28;19977;-72
2021/06/28 00:43:27;;;;;;;;;;;20.40;99.90;;;;;;5088982;28;19928;-73
2021/06/28 00:45:53;;;;;;;;;;;20.40;99.90;;;;;;5092480;28;19951;-73
2021/06/28 00:48:21;;;;;;;;;;;20.30;99.90;;;;;;5089904;28;19924;-73
2021/06/28 00:50:51;;;;;;;;;;;20.30;99.90;;;;;;5089315;28;20341;-73
2021/06/28 00:53:19;;;;;;;;;;;20.30;99.90;;;;;;5088482;28;19946;-73
2021/06/28 00:55:46;;;;;;;;;;;20.30;99.90;;;;;;5084643;28;20033;-73
2021/06/28 00:58:35;;;;;;;;;;;20.20;99.90;;;;;;5086425;28;19971;-73
2021/06/28 01:01:01;;;;;;;;;;;20.20;99.90;;;;;;5089296;28;20250;-73
2021/06/28 01:03:28;;;;;;;;;;;20.20;99.90;;;;;;5085895;28;20406;-73
2021/06/28 01:05:55;;;;;;;;;;;20.20;99.90;;;;;;5086039;28;19924;-73
2021/06/28 01:08:22;;;;;;;;;;;20.20;99.90;;;;;;5085238;28;19989;-73
2021/06/28 01:10:48;;;;;;;;;;;20.20;99.90;;;;;;5089593;28;20377;-73
2021/06/28 01:13:15;;;;;;;;;;;20.20;99.90;;;;;;5088543;28;20362;-73
2021/06/28 01:15:42;;;;;;;;;;;20.10;99.90;;;;;;5089262;28;19928;-73
2021/06/28 01:18:09;;;;;;;;;;;20.10;99.90;;;;;;5085008;28;19932;-73
2021/06/28 01:20:37;;;;;;;;;;;20.10;99.90;;;;;;5088398;28;19967;-73
2021/06/28 01:23:09;;;;;;;;;;;20.10;99.90;;;;;;5088424;28;19952;-73
2021/06/28 01:25:36;;;;;;;;;;;20.10;99.90;;;;;;5090684;28;19924;-73
2021/06/28 01:28:04;;;;;;;;;;;20.10;99.90;;;;;;5085364;28;19970;-73
2021/06/28 01:30:30;;;;;;;;;;;20.00;99.90;;;;;;5088736;28;19993;-73
2021/06/28 01:32:57;;;;;;;;;;;20.00;99.90;;;;;;5084313;28;19925;-73
2021/06/28 01:35:25;;;;;;;;;;;20.00;99.90;;;;;;5089818;28;19935;-73
2021/06/28 01:37:51;;;;;;;;;;;20.00;99.90;;;;;;5081515;28;19974;-73
2021/06/28 01:40:18;;;;;;;;;;;20.00;99.90;;;;;;5082523;28;20332;-73
2021/06/28 01:42:46;;;;;;;;;;;20.00;99.90;;;;;;5086804;28;20416;-73
2021/06/28 01:45:15;;;;;;;;;;;19.90;99.90;;;;;;5086907;28;19963;-73
2021/06/28 01:47:42;;;;;;;;;;;19.90;99.90;;;;;;5085667;28;20303;-73
2021/06/28 01:50:10;;;;;;;;;;;19.90;99.90;;;;;;5090491;28;19974;-73
2021/06/28 01:52:36;;;;;;;;;;;19.90;99.90;;;;;;5085732;28;19932;-73
2021/06/28 01:55:04;;;;;;;;;;;19.90;99.90;;;;;;5089911;28;19971;-72
2021/06/28 01:57:30;;;;;;;;;;;19.90;99.90;;;;;;5080446;28;20019;-73
2021/06/28 01:59:57;;;;;;;;;;;19.90;99.90;;;;;;5088610;28;19928;-73
2021/06/28 02:02:24;;;;;;;;;;;19.90;99.90;;;;;;5119273;27;19924;-73
2021/06/28 02:04:50;;;;;;;;;;;19.90;99.90;;;;;;5086676;28;19928;-73
2021/06/28 02:07:17;;;;;;;;;;;19.90;99.90;;;;;;5087288;28;19928;-72
2021/06/28 02:09:44;;;;;;;;;;;19.90;99.90;;;;;;5088163;28;19968;-73
2021/06/28 02:12:11;;;;;;;;;;;19.90;99.90;;;;;;5088451;28;20314;-72
2021/06/28 02:14:37;;;;;;;;;;;19.80;99.90;;;;;;5086454;28;19968;-73
2021/06/28 02:17:04;;;;;;;;;;;19.80;99.90;;;;;;5081553;28;20289;-72
2021/06/28 02:19:31;;;;;;;;;;;19.80;99.90;;;;;;5086109;28;20470;-72
2021/06/28 02:21:57;;;;;;;;;;;19.80;99.90;;;;;;5085033;28;19929;-73
2021/06/28 02:24:24;;;;;;;;;;;19.70;99.90;;;;;;5085313;28;19959;-73
2021/06/28 02:26:51;;;;;;;;;;;19.70;99.90;;;;;;5085876;28;20025;-72
2021/06/28 02:29:18;;;;;;;;;;;19.70;99.90;;;;;;5087444;28;20346;-72
2021/06/28 02:31:44;;;;;;;;;;;19.70;99.90;;;;;;5084998;28;19977;-73
2021/06/28 02:34:11;;;;;;;;;;;19.70;99.90;;;;;;5086828;28;20393;-73
2021/06/28 02:36:38;;;;;;;;;;;19.70;99.90;;;;;;5084964;28;20528;-72
2021/06/28 02:39:06;;;;;;;;;;;19.70;99.90;;;;;;5081542;28;20074;-73
2021/06/28 02:41:33;;;;;;;;;;;19.60;99.90;;;;;;5086352;28;19923;-72
2021/06/28 02:43:59;;;;;;;;;;;19.60;99.90;;;;;;5088138;28;20780;-73
2021/06/28 02:46:26;;;;;;;;;;;19.60;99.90;;;;;;5085328;28;19925;-72
2021/06/28 02:48:53;;;;;;;;;;;19.60;99.90;;;;;;5117262;27;20430;-72
2021/06/28 02:51:20;;;;;;;;;;;19.50;99.90;;;;;;5084845;28;19982;-72
2021/06/28 02:53:47;;;;;;;;;;;19.50;99.90;;;;;;5083322;28;19954;-73
2021/06/28 02:56:15;;;;;;;;;;;19.50;99.90;;;;;;5084626;28;20360;-72
2021/06/28 02:58:44;;;;;;;;;;;19.40;99.90;;;;;;5084584;28;20418;-72
2021/06/28 03:01:11;;;;;;;;;;;19.40;99.90;;;;;;5087419;28;20024;-72
2021/06/28 03:03:38;;;;;;;;;;;19.40;99.90;;;;;;5085266;28;19960;-72
2021/06/28 03:06:05;;;;;;;;;;;19.30;99.90;;;;;;5087045;28;19959;-72
2021/06/28 03:08:31;;;;;;;;;;;19.30;99.90;;;;;;5087298;28;19971;-72
2021/06/28 03:11:01;;;;;;;;;;;19.30;99.90;;;;;;5087580;28;19971;-72
2021/06/28 03:13:32;;;;;;;;;;;19.30;99.90;;;;;;5083506;28;19969;-72
2021/06/28 03:15:58;;;;;;;;;;;19.20;99.90;;;;;;5085549;28;19978;-72
2021/06/28 03:18:25;;;;;;;;;;;19.20;99.90;;;;;;5085886;28;19947;-72
2021/06/28 03:20:52;;;;;;;;;;;19.20;99.90;;;;;;5088905;28;20390;-72
2021/06/28 03:23:19;;;;;;;;;;;19.20;99.90;;;;;;5083737;28;19928;-73
2021/06/28 03:29:08;;;;;;;;;;;19.10;99.90;;;;;;5088411;28;19989;-72
2021/06/28 03:31:34;;;;;;;;;;;19.10;99.90;;;;;;5085167;28;19968;-73
2021/06/28 03:34:01;;;;;;;;;;;19.10;99.90;;;;;;5086063;28;20414;-72
2021/06/28 03:36:28;;;;;;;;;;;19.00;99.90;;;;;;5085379;28;19959;-72
2021/06/28 03:38:54;;;;;;;;;;;19.00;99.90;;;;;;5078303;28;19924;-72
2021/06/28 03:41:21;;;;;;;;;;;19.00;99.90;;;;;;5088491;28;19949;-72
2021/06/28 03:43:48;;;;;;;;;;;19.00;99.90;;;;;;5088035;28;19936;-72
2021/06/28 03:46:15;;;;;;;;;;;19.00;99.90;;;;;;5088328;28;20019;-72
2021/06/28 03:48:53;;;;;;;;;;;19.00;99.90;;;;;;5084147;28;19977;-73
2021/06/28 03:51:20;;;;;;;;;;;19.00;99.90;;;;;;5083342;28;19970;-72
2021/06/28 03:53:46;;;;;;;;;;;19.00;99.90;;;;;;5083636;28;19929;-73
2021/06/28 03:56:15;;;;;;;;;;;19.00;99.90;;;;;;5085793;28;19925;-72
2021/06/28 03:58:43;;;;;;;;;;;19.00;99.90;;;;;;5083331;28;20014;-72
2021/06/28 04:01:11;;;;;;;;;;;19.00;99.90;;;;;;5088012;28;19959;-72
2021/06/28 04:03:38;;;;;;;;;;;19.00;99.90;;;;;;5081673;28;19928;-72
2021/06/28 04:06:06;;;;;;;;;;;18.90;99.90;;;;;;5083857;28;19928;-73
2021/06/28 04:08:33;;;;;;;;;;;18.90;99.90;;;;;;5081101;28;19924;-73
2021/06/28 04:11:00;;;;;;;;;;;18.90;99.90;;;;;;5086379;28;19924;-72
2021/06/28 04:13:27;;;;;;;;;;;18.90;99.90;;;;;;5086780;28;19928;-73
2021/06/28 04:15:54;;;;;;;;;;;18.90;99.90;;;;;;5089136;28;20277;-72
2021/06/28 04:18:20;;;;;;;;;;;18.90;99.90;;;;;;5090330;28;19932;-72
2021/06/28 04:20:47;;;;;;;;;;;18.90;99.90;;;;;;5092817;28;19982;-73
2021/06/28 04:23:14;;;;;;;;;;;18.90;99.90;;;;;;5088260;28;19972;-73
2021/06/28 04:25:41;;;;;;;;;;;19.00;99.90;;;;;;5092408;28;19963;-73
2021/06/28 04:28:07;;;;;;;;;;;19.00;99.90;;;;;;5086332;28;19975;-73
2021/06/28 04:30:34;;;;;;;;;;;19.00;99.90;;;;;;5091803;28;20359;-73
2021/06/28 04:33:01;;;;;;;;;;;19.00;99.90;;;;;;5085839;28;19955;-73
2021/06/28 04:35:28;;;;;;;;;;;19.10;99.90;;;;;;5090205;28;19943;-72
2021/06/28 04:37:55;;;;;;;;;;;19.10;99.90;;;;;;5084247;28;19990;-72
2021/06/28 04:40:23;;;;;;;;;;;19.10;99.90;;;;;;5087711;28;19981;-73
2021/06/28 04:42:50;;;;;;;;;;;19.20;99.90;;;;;;5087819;28;20058;-72
2021/06/28 04:45:18;;;;;;;;;;;19.20;99.90;;;;;;5091152;28;19924;-73
2021/06/28 04:47:45;;;;;;;;;;;19.30;99.90;;;;;;5082502;28;19928;-72
2021/06/28 04:50:13;;;;;;;;;;;19.40;99.90;;;;;;5082444;28;19970;-73
2021/06/28 04:52:39;;;;;;;;;;;19.40;99.90;;;;;;5085476;28;19924;-73
2021/06/28 04:55:11;;;;;;;;;;;19.50;99.90;;;;;;5087449;28;19932;-73
2021/06/28 04:57:38;;;;;;;;;;;19.60;99.90;;;;;;5116567;27;19924;-73
2021/06/28 05:00:07;;;;;;;;;;;19.70;99.90;;;;;;5091786;28;20485;-73
2021/06/28 05:02:34;;;;;;;;;;;19.80;99.90;;;;;;5080348;28;20366;-73
2021/06/28 05:05:00;;;;;;;;;;;19.90;99.90;;;;;;5086834;28;19924;-73
2021/06/28 05:07:27;;;;;;;;;;;19.90;99.90;;;;;;5085358;28;19935;-73
2021/06/28 05:09:54;;;;;;;;;;;20.00;99.90;;;;;;5091448;28;20406;-73
2021/06/28 05:12:20;;;;;;;;;;;20.10;99.90;;;;;;5088765;28;19931;-73
2021/06/28 05:14:48;;;;;;;;;;;20.10;99.90;;;;;;5092196;28;20039;-73
2021/06/28 05:17:14;;;;;;;;;;;20.20;99.90;;;;;;5087030;28;20002;-73
2021/06/28 05:19:42;;;;;;;;;;;20.20;99.90;;;;;;5088271;28;20023;-73
2021/06/28 05:22:08;;;;;;;;;;;20.30;99.90;;;;;;5087962;28;19924;-73
2021/06/28 05:24:35;;;;;;;;;;;20.30;99.90;;;;;;5090877;28;20018;-73
2021/06/28 05:27:02;;;;;;;;;;;20.40;99.90;;;;;;5087984;28;19979;-73
2021/06/28 05:29:29;;;;;;;;;;;20.50;99.90;;;;;;5091802;28;19964;-73
2021/06/28 05:31:55;;;;;;;;;;;20.50;99.90;;;;;;5086470;28;19965;-73
2021/06/28 05:34:22;;;;;;;;;;;20.60;99.90;;;;;;5087427;28;19931;-73
2021/06/28 05:36:49;;;;;;;;;;;20.70;99.90;;;;;;5087840;28;19928;-73
2021/06/28 05:39:15;;;;;;;;;;;20.70;99.90;;;;;;5084107;28;19928;-73
2021/06/28 05:41:42;;;;;;;;;;;20.80;99.90;;;;;;5085669;28;19974;-73
2021/06/28 05:44:09;;;;;;;;;;;20.80;99.90;;;;;;5089273;28;20345;-73
2021/06/28 05:46:36;;;;;;;;;;;20.90;99.90;;;;;;5086594;28;19928;-73
2021/06/28 05:49:03;;;;;;;;;;;20.90;99.90;;;;;;5074496;28;20348;-73
2021/06/28 05:51:30;;;;;;;;;;;20.90;99.90;;;;;;5065915;28;20021;-73
2021/06/28 05:53:57;;;;;;;;;;;20.90;99.90;;;;;;5069617;28;20017;-72
2021/06/28 05:56:23;;;;;;;;;;;21.00;99.90;;;;;;5071793;28;19936;-73
2021/06/28 05:58:50;;;;;;;;;;;21.00;99.90;;;;;;5076220;28;19994;-73
2021/06/28 06:01:17;;;;;;;;;;;21.00;99.90;;;;;;5069523;28;20391;-73
2021/06/28 06:03:44;;;;;;;;;;;21.10;99.90;;;;;;5069284;28;19932;-73
2021/06/28 06:06:10;;;;;;;;;;;21.10;99.90;;;;;;5063804;28;19932;-74
2021/06/28 06:08:38;;;;;;;;;;;21.20;99.90;;;;;;5067404;28;19935;-73
2021/06/28 06:11:05;;;;;;;;;;;21.30;99.90;;;;;;5069632;28;19974;-72
2021/06/28 06:13:31;;;;;;;;;;;21.30;99.90;;;;;;5068170;28;20579;-72
2021/06/28 06:15:59;;;;;;;;;;;21.40;99.90;;;;;;5072083;28;19936;-73
2021/06/28 06:18:26;;;;;;;;;;;21.40;99.90;;;;;;5067624;28;20013;-74
2021/06/28 06:20:52;;;;;;;;;;;21.50;99.90;;;;;;5068292;28;19963;-73
2021/06/28 06:23:19;;;;;;;;;;;21.60;99.90;;;;;;5079529;28;19993;-73
2021/06/28 06:25:46;;;;;;;;;;;21.60;99.90;;;;;;5071477;28;20501;-73
2021/06/28 06:28:13;;;;;;;;;;;21.70;99.90;;;;;;5073408;28;19975;-73
2021/06/28 06:30:41;;;;;;;;;;;21.70;99.90;;;;;;5073409;28;19929;-73
2021/06/28 06:33:09;;;;;;;;;;;21.80;99.90;;;;;;5102120;27;19947;-73
2021/06/28 06:35:36;;;;;;;;;;;21.90;99.90;;;;;;5068297;28;19924;-73
2021/06/28 06:38:03;;;;;;;;;;;21.90;99.90;;;;;;5069317;28;19928;-73
2021/06/28 06:40:30;;;;;;;;;;;22.00;99.90;;;;;;5079701;28;19971;-73
2021/06/28 06:42:57;;;;;;;;;;;22.00;99.90;;;;;;5069219;28;19976;-72
2021/06/28 06:45:24;;;;;;;;;;;22.10;99.90;;;;;;5069907;28;19925;-73
2021/06/28 06:47:51;;;;;;;;;;;22.10;99.90;;;;;;5101405;27;20613;-73
2021/06/28 06:50:18;;;;;;;;;;;22.10;99.90;;;;;;5069507;28;19998;-72
2021/06/28 06:52:46;;;;;;;;;;;22.20;99.90;;;;;;5069623;28;19955;-72
2021/06/28 06:55:13;;;;;;;;;;;22.30;99.90;;;;;;5068236;28;19931;-73
2021/06/28 06:57:40;;;;;;;;;;;22.30;99.90;;;;;;5067928;28;19964;-73
2021/06/28 07:00:09;;;;;;;;;;;22.40;99.90;;;;;;5074138;28;20036;-72
2021/06/28 07:02:35;;;;;;;;;;;22.40;99.90;;;;;;5071573;28;20096;-73
2021/06/28 07:05:03;;;;;;;;;;;22.50;99.90;;;;;;5109143;27;19952;-73
2021/06/28 07:07:29;;;;;;;;;;;22.50;99.90;;;;;;5068848;28;20397;-72
2021/06/28 07:09:56;;;;;;;;;;;22.60;99.90;;;;;;5070872;28;20417;-73
2021/06/28 07:12:23;;;;;;;;;;;22.60;99.90;;;;;;5071000;28;20476;-73
2021/06/28 07:14:53;;;;;;;;;;;22.70;99.90;;;;;;5070349;28;19970;-73
2021/06/28 07:17:19;;;;;;;;;;;22.70;99.90;;;;;;5068936;28;19928;-73
2021/06/28 07:19:46;;;;;;;;;;;22.80;99.90;;;;;;5068458;28;19939;-72
2021/06/28 07:22:13;;;;;;;;;;;22.80;99.90;;;;;;5102225;27;20411;-73
2021/06/28 07:24:39;;;;;;;;;;;22.80;99.90;;;;;;5074714;28;19971;-72
2021/06/28 07:27:06;;;;;;;;;;;22.80;99.90;;;;;;5072215;28;20402;-73
2021/06/28 07:29:33;;;;;;;;;;;22.90;99.90;;;;;;5071298;28;20376;-72
2021/06/28 07:31:59;;;;;;;;;;;22.90;99.90;;;;;;5069862;28;19974;-73
2021/06/28 07:34:26;;;;;;;;;;;22.90;99.90;;;;;;5073431;28;20249;-73
2021/06/28 07:36:53;;;;;;;;;;;23.00;99.90;;;;;;5070046;28;19963;-73
2021/06/28 07:39:19;;;;;;;;;;;23.00;99.90;;;;;;5068981;28;20323;-72
2021/06/28 07:41:46;;;;;;;;;;;23.10;99.90;;;;;;5070386;28;20018;-73
2021/06/28 07:44:13;;;;;;;;;;;23.10;99.90;;;;;;5076153;28;19951;-72
2021/06/28 07:46:40;;;;;;;;;;;23.20;99.90;;;;;;5067946;28;19989;-72
2021/06/28 07:49:06;;;;;;;;;;;23.20;99.90;;;;;;5071116;28;19930;-72
2021/06/28 07:51:36;;;;;;;;;;;23.20;99.90;;;;;;5070647;28;20013;-72
2021/06/28 07:54:03;;;;;;;;;;;23.30;99.90;;;;;;5069747;28;19928;-72
2021/06/28 07:56:32;;;;;;;;;;;23.30;99.90;;;;;;5069499;28;21379;-73
2021/06/28 07:58:59;;;;;;;;;;;23.30;99.90;;;;;;5068911;28;20047;-72
2021/06/28 08:01:25;;;;;;;;;;;23.40;99.90;;;;;;5068817;28;19935;-72
2021/06/28 08:03:52;;;;;;;;;;;23.40;99.90;;;;;;5061057;28;19924;-72
2021/06/28 08:06:20;;;;;;;;;;;23.40;99.90;;;;;;5071954;28;20000;-72
2021/06/28 08:08:48;;;;;;;;;;;23.30;99.90;;;;;;5072696;28;20210;-72
2021/06/28 08:11:15;;;;;;;;;;;23.30;99.90;;;;;;5071470;28;20078;-72
2021/06/28 08:13:45;;;;;;;;;;;23.30;99.90;;;;;;5067411;28;19974;-72
2021/06/28 08:16:12;;;;;;;;;;;23.30;99.90;;;;;;5068026;28;20395;-72
2021/06/28 08:18:39;;;;;;;;;;;23.30;99.90;;;;;;5071431;28;19937;-72
2021/06/28 08:21:17;;;;;;;;;;;23.30;99.90;;;;;;5072581;28;19928;-72
2021/06/28 08:23:44;;;;;;;;;;;23.40;99.90;;;;;;5068687;28;19974;-72
2021/06/28 08:26:11;;;;;;;;;;;23.40;99.90;;;;;;5062223;28;19971;-72
2021/06/28 08:28:39;;;;;;;;;;;23.50;99.90;;;;;;5068548;28;20280;-72
2021/06/28 08:31:06;;;;;;;;;;;23.60;99.90;;;;;;5069603;28;19928;-72
2021/06/28 08:33:33;;;;;;;;;;;23.60;99.90;;;;;;5069067;28;19974;-72
2021/06/28 08:36:00;;;;;;;;;;;23.70;99.90;;;;;;5068175;28;19933;-72
2021/06/28 08:38:26;;;;;;;;;;;23.70;99.90;;;;;;5069781;28;19924;-72
2021/06/28 08:40:53;;;;;;;;;;;23.70;99.90;;;;;;5071603;28;19968;-72
2021/06/28 08:43:20;;;;;;;;;;;23.80;99.90;;;;;;5069353;28;19928;-72
2021/06/28 08:45:47;;;;;;;;;;;23.80;99.90;;;;;;5070724;28;19925;-71
2021/06/28 08:48:13;;;;;;;;;;;23.90;99.90;;;;;;5067099;28;20420;-72
2021/06/28 08:50:41;;;;;;;;;;;24.00;99.90;;;;;;5070203;28;19933;-72
2021/06/28 08:53:08;;;;;;;;;;;24.00;99.90;;;;;;5073016;28;19925;-72
2021/06/28 08:55:36;;;;;;;;;;;24.00;99.90;;;;;;5071835;28;19978;-72
2021/06/28 08:58:03;;;;;;;;;;;24.00;99.90;;;;;;5066010;28;20413;-72
2021/06/28 09:00:30;;;;;;;;;;;24.00;99.90;;;;;;5076151;28;20013;-72
2021/06/28 09:03:01;;;;;;;;;;;24.00;99.90;;;;;;5104948;27;19975;-72
2021/06/28 09:05:28;;;;;;;;;;;24.00;99.90;;;;;;5075069;28;20434;-72
2021/06/28 09:08:07;;;;;;;;;;;24.10;99.90;;;;;;5072165;28;20023;-72
2021/06/28 09:10:35;;;;;;;;;;;24.20;99.90;;;;;;5074043;28;20338;-72
2021/06/28 09:13:03;;;;;;;;;;;24.20;99.90;;;;;;5074315;28;20011;-72
2021/06/28 09:15:34;;;;;;;;;;;24.20;99.90;;;;;;5071749;28;19928;-72
2021/06/28 09:18:33;;;;;;;;;;;24.20;99.90;;;;;;5070108;28;19993;-71
2021/06/28 09:21:07;;;;;;;;;;;24.20;99.90;;;;;;5053430;28;19938;-72
2021/06/28 09:23:37;;;;;;;;;;;24.30;99.90;;;;;;5102506;27;19971;-72
2021/06/28 09:26:10;;;;;;;;;;;24.40;99.90;;;;;;5074027;28;19975;-72
2021/06/28 09:28:40;;;;;;;;;;;24.40;99.90;;;;;;5071678;28;24378;-72
2021/06/28 09:31:09;;;;;;;;;;;24.50;99.90;;;;;;5070208;28;19964;-72
2021/06/28 09:33:36;;;;;;;;;;;24.50;99.90;;;;;;5100715;27;20292;-72
2021/06/28 09:36:19;;;;;;;;;;;24.40;99.90;;;;;;5067979;28;19935;-72
2021/06/28 09:38:46;;;;;;;;;;;24.40;99.90;;;;;;5078186;28;19977;-72
2021/06/28 09:41:19;;;;;;;;;;;24.40;99.90;;;;;;5069339;28;19962;-72
2021/06/28 09:43:46;;;;;;;;;;;24.40;99.90;;;;;;5069805;28;20343;-72
2021/06/28 09:46:17;;;;;;;;;;;24.40;99.90;;;;;;5071122;28;19928;-73
2021/06/28 09:48:50;;;;;;;;;;;24.30;99.90;;;;;;5069923;28;19950;-72
2021/06/28 09:51:19;;;;;;;;;;;24.20;99.90;;;;;;5071487;28;19987;-73
2021/06/28 09:53:50;;;;;;;;;;;24.20;99.90;;;;;;5071308;28;20032;-72
2021/06/28 09:56:36;;;;;;;;;;;24.10;99.90;;;;;;5071102;28;19971;-72
2021/06/28 09:59:21;;;;;;;;;;;24.00;99.90;;;;;;5068361;28;19928;-73
2021/06/28 10:01:49;;;;;;;;;;;24.00;99.90;;;;;;5071696;28;19968;-72
2021/06/28 10:04:38;;;;;;;;;;;24.00;99.90;;;;;;5071288;28;19936;-72
2021/06/28 10:07:23;;;;;;;;;;;24.00;99.90;;;;;;5067599;28;19967;-72
2021/06/28 10:10:09;;;;;;;;;;;23.90;99.90;;;;;;5070085;28;19972;-72
2021/06/28 10:12:36;;;;;;;;;;;23.90;99.90;;;;;;5071128;28;20288;-72
2021/06/28 10:15:05;;;;;;;;;;;23.90;99.90;;;;;;5068462;28;19976;-72
2021/06/28 10:17:32;;;;;;;;;;;23.80;99.90;;;;;;5065829;28;20321;-72
2021/06/28 10:19:59;;;;;;;;;;;23.80;99.90;;;;;;5071052;28;19928;-72
2021/06/28 10:22:26;;;;;;;;;;;23.80;99.90;;;;;;5068630;28;19975;-72
2021/06/28 10:24:55;;;;;;;;;;;23.80;99.90;;;;;;5070910;28;19946;-72
2021/06/28 10:27:22;;;;;;;;;;;23.80;99.90;;;;;;5065912;28;20060;-72
2021/06/28 10:29:49;;;;;;;;;;;23.70;99.90;;;;;;5065774;28;19963;-72
2021/06/28 10:32:18;;;;;;;;;;;23.70;99.90;;;;;;5075109;28;19997;-72
2021/06/28 10:34:51;;;;;;;;;;;23.60;99.90;;;;;;5069542;28;19928;-72
2021/06/28 10:37:31;;;;;;;;;;;23.60;99.90;;;;;;5066980;28;19956;-72
2021/06/28 10:39:58;;;;;;;;;;;23.60;99.90;;;;;;5069045;28;19968;-71
2021/06/28 10:42:30;;;;;;;;;;;23.60;99.90;;;;;;5069025;28;19989;-73
2021/06/28 10:44:57;;;;;;;;;;;23.60;99.90;;;;;;5074190;28;19925;-72
2021/06/28 10:47:24;;;;;;;;;;;23.60;99.90;;;;;;5067988;28;20692;-72
2021/06/28 10:49:52;;;;;;;;;;;23.50;99.90;;;;;;5068966;28;19967;-72
2021/06/28 10:52:34;;;;;;;;;;;23.50;99.90;;;;;;5068591;28;20015;-72
2021/06/28 10:55:02;;;;;;;;;;;23.50;99.90;;;;;;5068612;28;20011;-73
2021/06/28 10:57:39;;;;;;;;;;;23.50;99.90;;;;;;5066877;28;19970;-72
2021/06/28 11:00:06;;;;;;;;;;;23.50;99.90;;;;;;5070973;28;20276;-73
2021/06/28 11:02:37;;;;;;;;;;;23.50;99.90;;;;;;5072315;28;20014;-72
2021/06/28 11:05:06;;;;;;;;;;;23.50;99.90;;;;;;5071585;28;19963;-72
2021/06/28 11:07:48;;;;;;;;;;;23.50;99.90;;;;;;5067529;28;20001;-72
2021/06/28 11:10:35;;;;;;;;;;;23.50;99.90;;;;;;5068594;28;19928;-70
2021/06/28 11:13:20;;;;;;;;;;;23.50;99.90;;;;;;5067027;28;20371;-72
2021/06/28 11:15:47;;;;;;;;;;;23.50;99.90;;;;;;5065822;28;20020;-72
2021/06/28 11:18:29;;;;;;;;;;;23.50;99.90;;;;;;5067670;28;19963;-71
2021/06/28 11:20:56;;;;;;;;;;;23.50;99.90;;;;;;5068987;28;19975;-72
2021/06/28 11:23:23;;;;;;;;;;;23.50;99.90;;;;;;5071049;28;19982;-72
2021/06/28 11:25:53;;;;;;;;;;;23.50;99.90;;;;;;5067799;28;19980;-72
2021/06/28 11:28:35;;;;;;;;;;;23.50;99.90;;;;;;5066975;28;19932;-72
2021/06/28 11:31:05;;;;;;;;;;;23.50;99.90;;;;;;5069835;28;19964;-72
2021/06/28 11:33:33;;;;;;;;;;;23.50;99.90;;;;;;5068778;28;20017;-72
2021/06/28 11:36:01;;;;;;;;;;;23.40;99.90;;;;;;5066770;28;19932;-72
2021/06/28 11:38:35;;;;;;;;;;;23.40;99.90;;;;;;5071330;28;19924;-72
2021/06/28 11:41:07;;;;;;;;;;;23.50;99.90;;;;;;5070948;28;20003;-72
2021/06/28 11:43:42;;;;;;;;;;;23.40;99.90;;;;;;5066240;28;19978;-72
2021/06/28 11:46:29;;;;;;;;;;;23.40;99.90;;;;;;5098016;27;19982;-72
2021/06/28 11:48:55;;;;;;;;;;;23.40;99.90;;;;;;5067632;28;20102;-71
2021/06/28 11:51:24;;;;;;;;;;;23.50;99.90;;;;;;5068501;28;19978;-72
2021/06/28 11:53:57;;;;;;;;;;;23.40;99.90;;;;;;5068871;28;20053;-72
2021/06/28 11:56:33;;;;;;;;;;;23.40;99.90;;;;;;5068959;28;20430;-72
2021/06/28 11:59:06;;;;;;;;;;;23.40;99.90;;;;;;5069439;28;19976;-72
2021/06/28 12:01:34;;;;;;;;;;;23.50;99.90;;;;;;5073974;28;20002;-72
2021/06/28 12:04:03;;;;;;;;;;;23.50;99.90;;;;;;5071729;28;19950;-72
2021/06/28 12:06:35;;;;;;;;;;;23.50;99.90;;;;;;5068777;28;19966;-72
2021/06/28 12:09:03;;;;;;;;;;;23.50;99.90;;;;;;5070290;28;20027;-72
2021/06/28 12:11:30;;;;;;;;;;;23.50;99.90;;;;;;5067420;28;19959;-72
2021/06/28 12:13:57;;;;;;;;;;;23.50;99.90;;;;;;5070153;28;19928;-72
2021/06/28 12:16:25;;;;;;;;;;;23.50;99.90;;;;;;5073404;28;20018;-72
2021/06/28 12:19:03;;;;;;;;;;;23.50;99.90;;;;;;5069006;28;19924;-72
2021/06/28 12:21:30;;;;;;;;;;;23.50;99.90;;;;;;5069862;28;19925;-72
2021/06/28 12:24:04;;;;;;;;;;;23.50;99.90;;;;;;5070523;28;19924;-72
2021/06/28 12:26:31;;;;;;;;;;;23.60;99.90;;;;;;5068972;28;20429;-72
2021/06/28 12:29:18;;;;;;;;;;;23.60;99.90;;;;;;5068514;28;20030;-72
2021/06/28 12:31:45;;;;;;;;;;;23.60;99.90;;;;;;5070216;28;20013;-72
2021/06/28 12:34:17;;;;;;;;;;;23.60;99.90;;;;;;5076447;28;20015;-72
2021/06/28 12:36:51;;;;;;;;;;;23.60;99.90;;;;;;5070962;28;20340;-72
2021/06/28 12:39:24;;;;;;;;;;;23.60;99.90;;;;;;5076174;28;19967;-73
2021/06/28 12:41:51;;;;;;;;;;;23.60;99.90;;;;;;5071361;28;20022;-72
2021/06/28 12:44:18;;;;;;;;;;;23.70;99.90;;;;;;5072759;28;19925;-72
2021/06/28 12:46:46;;;;;;;;;;;23.70;99.90;;;;;;5073761;28;21634;-72
2021/06/28 12:49:13;;;;;;;;;;;23.70;99.90;;;;;;5071558;28;19924;-72
2021/06/28 12:51:41;;;;;;;;;;;23.70;99.90;;;;;;5070299;28;21093;-71
2021/06/28 12:54:24;;;;;;;;;;;23.70;99.90;;;;;;5073228;28;19977;-73
2021/06/28 12:56:50;;;;;;;;;;;23.70;99.90;;;;;;5073488;28;19956;-73
2021/06/28 12:59:33;;;;;;;;;;;23.70;99.90;;;;;;5075284;28;20416;-72
2021/06/28 13:02:00;;;;;;;;;;;23.70;99.90;;;;;;5072235;28;19928;-72
2021/06/28 13:04:27;;;;;;;;;;;23.60;99.90;;;;;;5105350;27;20402;-72
2021/06/28 13:06:56;;;;;;;;;;;23.60;99.90;;;;;;5069828;28;20367;-72
2021/06/28 13:09:23;;;;;;;;;;;23.60;99.90;;;;;;5071578;28;20421;-72
2021/06/28 13:11:52;;;;;;;;;;;23.60;99.90;;;;;;5070073;28;19959;-72
2021/06/28 13:14:22;;;;;;;;;;;23.60;99.90;;;;;;5071588;28;19955;-72
2021/06/28 13:19:17;;;;;;;;;;;23.60;99.90;;;;;;5069928;28;19936;-71
2021/06/28 13:21:44;;;;;;;;;;;23.50;99.90;;;;;;5073464;28;19955;-72
2021/06/28 13:24:15;;;;;;;;;;;23.60;99.90;;;;;;5072594;28;19981;-72
2021/06/28 13:26:42;;;;;;;;;;;23.60;99.90;;;;;;5070411;28;19928;-72
2021/06/28 13:29:10;;;;;;;;;;;23.60;99.90;;;;;;5071879;28;19962;-72
2021/06/28 13:31:55;;;;;;;;;;;23.60;99.90;;;;;;5071757;28;20277;-72
2021/06/28 13:34:23;;;;;;;;;;;23.60;99.90;;;;;;5077064;28;20351;-72
2021/06/28 13:36:59;;;;;;;;;;;23.70;99.90;;;;;;5070742;28;19978;-72
2021/06/28 13:39:36;;;;;;;;;;;23.60;99.90;;;;;;5075138;28;19928;-72
2021/06/28 13:42:03;;;;;;;;;;;23.70;99.90;;;;;;5071996;28;20444;-72
2021/06/28 13:44:30;;;;;;;;;;;23.70;99.90;;;;;;5073690;28;20237;-72
2021/06/28 13:47:07;;;;;;;;;;;23.60;99.90;;;;;;5069515;28;19928;-72
2021/06/28 13:49:37;;;;;;;;;;;23.70;99.90;;;;;;5073005;28;20052;-71
2021/06/28 13:52:04;;;;;;;;;;;23.70;99.90;;;;;;5070625;28;19924;-72
2021/06/28 13:54:33;;;;;;;;;;;23.60;99.90;;;;;;5072646;28;19979;-71
2021/06/28 13:56:59;;;;;;;;;;;23.60;99.90;;;;;;5068380;28;20440;-72
2021/06/28 13:59:26;;;;;;;;;;;23.60;99.90;;;;;;5070262;28;19978;-72
2021/06/28 14:01:52;;;;;;;;;;;23.60;99.90;;;;;;5069823;28;19929;-72
2021/06/28 14:04:19;;;;;;;;;;;23.70;99.90;;;;;;5071192;28;20348;-72
2021/06/28 14:06:46;;;;;;;;;;;23.60;99.90;;;;;;5074290;28;19975;-72
2021/06/28 14:09:15;;;;;;;;;;;23.60;99.90;;;;;;5071685;28;19924;-72
2021/06/28 14:11:42;;;;;;;;;;;23.60;99.90;;;;;;5072328;28;19999;-73
2021/06/28 14:14:08;;;;;;;;;;;23.60;99.90;;;;;;5071757;28;20445;-72
2021/06/28 14:16:35;;;;;;;;;;;23.70;99.90;;;;;;5070279;28;19924;-72
2021/06/28 14:19:02;;;;;;;;;;;23.60;99.90;;;;;;5073462;28;19964;-72
2021/06/28 14:21:30;;;;;;;;;;;23.70;99.90;;;;;;5073011;28;20334;-72
2021/06/28 14:23:57;;;;;;;;;;;23.70;99.90;;;;;;5074504;28;19990;-74
2021/06/28 14:26:24;;;;;;;;;;;23.70;99.90;;;;;;5068544;28;20456;-73
2021/06/28 14:28:50;;;;;;;;;;;23.60;99.90;;;;;;5073830;28;19969;-73
2021/06/28 14:31:17;;;;;;;;;;;23.60;99.90;;;;;;5075070;28;19928;-73